Time;durP1;ratioP1;P1;durP2;ratioP2;P2;SDS_P1;SDS_P2;PMS_P1;PMS_P2;Temp;Humidity;BMP_temperature;BMP_pressure;BME280_temperature;BME280_humidity;BME280_pressure;Samples;Min_cycle;Max_cycle;Signal;HPM_P1;HPM_P2
2021/11/30 00:01:06;;;;;;;;;;;4.50;98.00;;;;;;5120146;27;19922;-81
2021/11/30 00:03:35;;;;;;;;;;;4.40;98.00;;;;;;5153194;27;19915;-81
2021/11/30 00:06:00;;;;;;;;;;;4.40;98.00;;;;;;5117419;27;19954;-81
2021/11/30 00:08:30;;;;;;;;;;;4.40;97.90;;;;;;5135065;27;19950;-80
2021/11/30 00:10:58;;;;;;;;;;;4.40;97.90;;;;;;5132436;27;19986;-82
2021/11/30 00:13:25;;;;;;;;;;;4.40;97.90;;;;;;5155943;27;19907;-81
2021/11/30 00:15:54;;;;;;;;;;;4.40;97.90;;;;;;5149921;27;19911;-81
2021/11/30 00:18:19;;;;;;;;;;;4.40;97.80;;;;;;5129923;27;19944;-82
2021/11/30 00:20:45;;;;;;;;;;;4.40;97.80;;;;;;5121064;27;19919;-81
2021/11/30 00:23:12;;;;;;;;;;;4.40;97.80;;;;;;5147005;27;19979;-81
2021/11/30 00:25:38;;;;;;;;;;;4.40;97.80;;;;;;5151669;27;19915;-81
2021/11/30 00:28:04;;;;;;;;;;;4.40;97.70;;;;;;5121014;27;20018;-81
2021/11/30 00:30:31;;;;;;;;;;;4.40;97.80;;;;;;5118024;27;19911;-81
2021/11/30 00:32:57;;;;;;;;;;;4.40;97.80;;;;;;5155607;27;19915;-81
2021/11/30 00:35:23;;;;;;;;;;;4.40;97.80;;;;;;5137324;27;20271;-81
2021/11/30 00:37:48;;;;;;;;;;;4.40;97.80;;;;;;5115606;27;19973;-81
2021/11/30 00:40:14;;;;;;;;;;;4.40;97.80;;;;;;5116684;27;19912;-82
2021/11/30 00:42:39;;;;;;;;;;;4.40;98.00;;;;;;5099067;27;19911;-76
2021/11/30 00:45:07;;;;;;;;;;;4.40;97.80;;;;;;5136410;27;19938;-76
2021/11/30 00:47:33;;;;;;;;;;;4.30;97.60;;;;;;5150427;27;20312;-75
2021/11/30 00:50:00;;;;;;;;;;;4.30;97.60;;;;;;5155180;27;19956;-75
2021/11/30 00:52:26;;;;;;;;;;;4.30;97.60;;;;;;5139492;27;20260;-75
2021/11/30 00:54:52;;;;;;;;;;;4.40;97.70;;;;;;5135419;27;19912;-76
2021/11/30 00:57:18;;;;;;;;;;;4.30;97.60;;;;;;5117967;27;19916;-75
2021/11/30 00:59:44;;;;;;;;;;;4.30;97.60;;;;;;5135452;27;19915;-75
2021/11/30 01:02:09;;;;;;;;;;;4.30;97.50;;;;;;5134061;27;19911;-75
2021/11/30 01:04:35;;;;;;;;;;;4.30;97.50;;;;;;5108039;27;19959;-75
2021/11/30 01:07:00;;;;;;;;;;;4.30;97.50;;;;;;5131673;27;19963;-75
2021/11/30 01:09:26;;;;;;;;;;;4.30;97.40;;;;;;5119899;27;19911;-75
2021/11/30 01:11:52;;;;;;;;;;;4.30;97.60;;;;;;5118369;27;19945;-75
2021/11/30 01:14:17;;;;;;;;;;;4.30;97.30;;;;;;5123402;27;20393;-75
2021/11/30 01:16:43;;;;;;;;;;;4.30;97.20;;;;;;5130008;27;19915;-75
2021/11/30 01:19:08;;;;;;;;;;;4.30;97.20;;;;;;5130687;27;20005;-75
2021/11/30 01:21:34;;;;;;;;;;;4.30;97.20;;;;;;5150566;27;19916;-75
2021/11/30 01:24:00;;;;;;;;;;;4.30;97.10;;;;;;5128091;27;20655;-75
2021/11/30 01:26:25;;;;;;;;;;;4.30;97.10;;;;;;5106372;27;19919;-75
2021/11/30 01:28:51;;;;;;;;;;;4.30;97.10;;;;;;5142887;27;19926;-76
2021/11/30 01:31:16;;;;;;;;;;;4.30;97.00;;;;;;5116187;27;19930;-76
2021/11/30 01:33:42;;;;;;;;;;;4.30;97.00;;;;;;5146984;27;20491;-75
2021/11/30 01:36:08;;;;;;;;;;;4.30;96.90;;;;;;5134121;27;19915;-75
2021/11/30 01:38:34;;;;;;;;;;;4.30;96.70;;;;;;5119424;28;19919;-75
2021/11/30 01:41:02;;;;;;;;;;;4.30;96.70;;;;;;5130273;27;19915;-75
2021/11/30 01:43:36;;;;;;;;;;;4.30;96.60;;;;;;5140945;27;20436;-75
2021/11/30 01:51:17;;;;;;;;;;;4.30;96.40;;;;;;5136280;27;19915;-75
2021/11/30 01:53:43;;;;;;;;;;;4.30;96.50;;;;;;5143445;27;19915;-75
2021/11/30 01:56:08;;;;;;;;;;;4.30;96.60;;;;;;5138706;27;19918;-76
2021/11/30 01:58:34;;;;;;;;;;;4.20;96.70;;;;;;5123581;27;19916;-75
2021/11/30 02:00:59;;;;;;;;;;;4.20;96.90;;;;;;5142878;27;19918;-76
2021/11/30 02:03:25;;;;;;;;;;;4.20;97.00;;;;;;5113865;28;19965;-75
2021/11/30 02:05:51;;;;;;;;;;;4.20;97.20;;;;;;5116291;27;19947;-75
2021/11/30 02:08:16;;;;;;;;;;;4.20;97.40;;;;;;5126547;27;19933;-75
2021/11/30 02:10:42;;;;;;;;;;;4.20;97.60;;;;;;5134539;27;19908;-75
2021/11/30 02:13:08;;;;;;;;;;;4.20;97.70;;;;;;5126105;28;19907;-76
2021/11/30 02:15:38;;;;;;;;;;;4.10;97.70;;;;;;5103253;27;19915;-75
2021/11/30 02:18:06;;;;;;;;;;;4.10;97.80;;;;;;5096459;27;20002;-75
2021/11/30 02:20:36;;;;;;;;;;;4.10;98.10;;;;;;5113852;28;19920;-75
2021/11/30 02:23:02;;;;;;;;;;;4.00;98.40;;;;;;5141719;27;19927;-75
2021/11/30 02:25:27;;;;;;;;;;;4.00;98.40;;;;;;5138516;27;19911;-76
2021/11/30 02:27:53;;;;;;;;;;;4.00;98.50;;;;;;5132926;27;19927;-75
2021/11/30 02:30:19;;;;;;;;;;;4.00;98.60;;;;;;5144425;27;19923;-75
2021/11/30 02:32:45;;;;;;;;;;;3.90;98.70;;;;;;5127550;27;19926;-75
2021/11/30 02:35:11;;;;;;;;;;;3.90;98.80;;;;;;5118222;27;19919;-76
2021/11/30 02:37:45;;;;;;;;;;;3.90;98.90;;;;;;5139041;27;20381;-76
2021/11/30 02:40:11;;;;;;;;;;;3.90;99.10;;;;;;5132278;27;19920;-76
2021/11/30 02:42:37;;;;;;;;;;;4.00;99.40;;;;;;5134517;27;19919;-75
2021/11/30 02:45:03;;;;;;;;;;;3.90;99.40;;;;;;5130471;27;19919;-76
2021/11/30 02:47:28;;;;;;;;;;;3.90;99.50;;;;;;5111432;27;19923;-75
2021/11/30 02:49:54;;;;;;;;;;;3.90;99.50;;;;;;5150825;27;19925;-75
2021/11/30 02:52:20;;;;;;;;;;;3.90;99.60;;;;;;5115653;27;19916;-75
2021/11/30 02:54:53;;;;;;;;;;;3.90;99.70;;;;;;5117378;27;19926;-76
2021/11/30 02:57:19;;;;;;;;;;;4.00;99.80;;;;;;5116823;27;19959;-75
2021/11/30 02:59:45;;;;;;;;;;;4.00;99.80;;;;;;5140751;27;19947;-76
2021/11/30 03:02:16;;;;;;;;;;;4.00;99.90;;;;;;5153089;27;19956;-75
2021/11/30 03:04:50;;;;;;;;;;;4.00;99.90;;;;;;5146937;27;19919;-75
2021/11/30 03:07:17;;;;;;;;;;;4.00;99.90;;;;;;5121885;27;19966;-75
2021/11/30 03:09:43;;;;;;;;;;;4.00;99.90;;;;;;5123586;27;19908;-76
2021/11/30 03:12:09;;;;;;;;;;;4.00;99.90;;;;;;5118202;27;19984;-76
2021/11/30 03:14:34;;;;;;;;;;;4.00;99.90;;;;;;5124410;27;19922;-75
2021/11/30 03:17:00;;;;;;;;;;;4.10;99.90;;;;;;5127047;27;19911;-76
2021/11/30 03:19:27;;;;;;;;;;;4.10;99.90;;;;;;5122491;27;19959;-76
2021/11/30 03:21:53;;;;;;;;;;;4.10;99.90;;;;;;5125607;27;20411;-76
2021/11/30 03:24:18;;;;;;;;;;;4.10;99.90;;;;;;5121522;27;19990;-76
2021/11/30 03:26:44;;;;;;;;;;;4.10;99.90;;;;;;5115314;27;19922;-76
2021/11/30 03:29:10;;;;;;;;;;;4.10;99.90;;;;;;5135330;27;19915;-76
2021/11/30 03:34:08;;;;;;;;;;;4.20;99.90;;;;;;5149681;27;19918;-75
2021/11/30 03:36:34;;;;;;;;;;;4.20;99.90;;;;;;5115462;27;19908;-76
2021/11/30 03:39:02;;;;;;;;;;;4.20;99.90;;;;;;5114239;27;19933;-76
2021/11/30 03:41:30;;;;;;;;;;;4.20;99.90;;;;;;5153175;27;19915;-76
2021/11/30 03:43:56;;;;;;;;;;;4.20;99.90;;;;;;5138546;27;20364;-76
2021/11/30 03:46:21;;;;;;;;;;;4.30;99.90;;;;;;5134638;27;19971;-75
2021/11/30 03:48:47;;;;;;;;;;;4.30;99.90;;;;;;5140479;27;19915;-75
2021/11/30 03:51:13;;;;;;;;;;;4.30;99.90;;;;;;5114581;27;20287;-75
2021/11/30 03:53:38;;;;;;;;;;;4.30;99.90;;;;;;5138401;27;19911;-76
2021/11/30 03:56:04;;;;;;;;;;;4.40;99.90;;;;;;5132198;27;20343;-76
2021/11/30 03:58:29;;;;;;;;;;;4.40;99.90;;;;;;5144931;27;19915;-75
2021/11/30 04:00:55;;;;;;;;;;;4.40;99.90;;;;;;5102383;27;19919;-75
2021/11/30 04:03:22;;;;;;;;;;;4.40;99.90;;;;;;5144958;27;19915;-75
2021/11/30 04:05:48;;;;;;;;;;;4.40;99.90;;;;;;5134008;27;19999;-76
2021/11/30 04:08:13;;;;;;;;;;;4.50;99.90;;;;;;5137698;27;20323;-75
2021/11/30 04:10:39;;;;;;;;;;;4.50;99.90;;;;;;5127350;27;20253;-76
2021/11/30 04:13:04;;;;;;;;;;;4.50;99.90;;;;;;5127018;27;20003;-75
2021/11/30 04:15:30;;;;;;;;;;;4.60;99.90;;;;;;5131136;27;19915;-76
2021/11/30 04:17:55;;;;;;;;;;;4.50;99.90;;;;;;5142603;27;19919;-75
2021/11/30 04:20:21;;;;;;;;;;;4.60;99.90;;;;;;5153725;27;20358;-75
2021/11/30 04:22:47;;;;;;;;;;;4.60;99.90;;;;;;5121336;27;19915;-75
2021/11/30 04:25:13;;;;;;;;;;;4.60;99.90;;;;;;5122157;27;19911;-75
2021/11/30 04:27:39;;;;;;;;;;;4.70;99.90;;;;;;5125077;27;20009;-75
2021/11/30 04:30:05;;;;;;;;;;;4.70;99.90;;;;;;5133886;27;20005;-76
2021/11/30 04:32:31;;;;;;;;;;;4.70;99.90;;;;;;5141524;27;19919;-76
2021/11/30 04:34:57;;;;;;;;;;;4.70;99.90;;;;;;5134637;27;19922;-76
2021/11/30 04:37:22;;;;;;;;;;;4.80;99.90;;;;;;5148508;27;20487;-75
2021/11/30 04:39:48;;;;;;;;;;;4.70;99.90;;;;;;5141819;27;20371;-75
2021/11/30 04:42:13;;;;;;;;;;;4.80;99.90;;;;;;5115946;27;19912;-76
2021/11/30 04:44:47;;;;;;;;;;;4.80;99.90;;;;;;5116048;27;19919;-75
2021/11/30 04:47:13;;;;;;;;;;;4.90;99.90;;;;;;5128422;27;20017;-76
2021/11/30 04:52:08;;;;;;;;;;;4.90;99.90;;;;;;5152294;27;19911;-76
2021/11/30 04:54:34;;;;;;;;;;;5.00;99.90;;;;;;5142087;27;19915;-75
2021/11/30 04:57:00;;;;;;;;;;;5.00;99.90;;;;;;5115504;27;19915;-76
2021/11/30 04:59:25;;;;;;;;;;;5.00;99.90;;;;;;5144322;27;19967;-76
2021/11/30 05:01:51;;;;;;;;;;;5.10;99.90;;;;;;5126090;27;20408;-75
2021/11/30 05:04:17;;;;;;;;;;;5.10;99.90;;;;;;5131103;27;20313;-76
2021/11/30 05:06:43;;;;;;;;;;;5.20;99.90;;;;;;5150103;27;20649;-76
2021/11/30 05:09:09;;;;;;;;;;;5.20;99.90;;;;;;5134340;27;20036;-76
2021/11/30 05:11:36;;;;;;;;;;;5.20;99.90;;;;;;5145819;27;19989;-75
2021/11/30 05:14:02;;;;;;;;;;;5.30;99.90;;;;;;5137982;27;19960;-75
2021/11/30 05:16:28;;;;;;;;;;;5.30;99.90;;;;;;5153074;27;20376;-76
2021/11/30 05:18:53;;;;;;;;;;;5.40;99.90;;;;;;5122542;27;19926;-75
2021/11/30 05:21:19;;;;;;;;;;;5.50;99.90;;;;;;5118718;27;19911;-75
2021/11/30 05:23:44;;;;;;;;;;;5.50;99.90;;;;;;5131196;27;19922;-76
2021/11/30 05:26:11;;;;;;;;;;;5.60;99.90;;;;;;5136072;27;19937;-75
2021/11/30 05:28:39;;;;;;;;;;;5.60;99.90;;;;;;5138595;27;19923;-76
2021/11/30 05:31:05;;;;;;;;;;;5.70;99.90;;;;;;5134889;27;20420;-75
2021/11/30 05:33:31;;;;;;;;;;;5.70;99.90;;;;;;5115350;28;19975;-75
2021/11/30 05:35:57;;;;;;;;;;;5.70;99.90;;;;;;5115748;28;19919;-75
2021/11/30 05:38:22;;;;;;;;;;;5.80;99.90;;;;;;5149291;27;19914;-75
2021/11/30 05:40:48;;;;;;;;;;;5.80;99.90;;;;;;5116197;28;20002;-76
2021/11/30 05:43:13;;;;;;;;;;;5.90;99.90;;;;;;5133670;27;19920;-75
2021/11/30 05:45:39;;;;;;;;;;;5.90;99.90;;;;;;5134052;27;19911;-75
2021/11/30 05:48:05;;;;;;;;;;;5.90;99.90;;;;;;5115399;28;20367;-76
2021/11/30 05:50:31;;;;;;;;;;;5.90;99.90;;;;;;5134430;27;20006;-76
2021/11/30 05:52:57;;;;;;;;;;;6.00;99.90;;;;;;5117538;28;20368;-75
2021/11/30 05:55:22;;;;;;;;;;;6.00;99.90;;;;;;5129063;27;20374;-75
2021/11/30 05:57:48;;;;;;;;;;;6.00;99.90;;;;;;5124504;27;20019;-76
2021/11/30 06:00:16;;;;;;;;;;;6.00;99.90;;;;;;5131698;27;19960;-75
2021/11/30 06:05:21;;;;;;;;;;;6.10;99.90;;;;;;5135415;27;19967;-75
2021/11/30 06:07:46;;;;;;;;;;;6.10;99.90;;;;;;5113391;28;20002;-76
2021/11/30 06:10:12;;;;;;;;;;;6.10;99.90;;;;;;5140575;27;19933;-75
2021/11/30 06:12:38;;;;;;;;;;;6.10;99.90;;;;;;5117383;27;19919;-76
2021/11/30 06:15:03;;;;;;;;;;;6.20;99.90;;;;;;5156609;27;20375;-75
2021/11/30 06:17:29;;;;;;;;;;;6.20;99.90;;;;;;5143005;27;19915;-75
2021/11/30 06:19:54;;;;;;;;;;;6.20;99.90;;;;;;5146057;27;19915;-76
2021/11/30 06:22:20;;;;;;;;;;;6.20;99.90;;;;;;5120699;27;20359;-75
2021/11/30 06:24:45;;;;;;;;;;;6.30;99.90;;;;;;5101036;27;20287;-75
2021/11/30 06:27:11;;;;;;;;;;;6.30;99.90;;;;;;5146158;27;19927;-75
2021/11/30 06:29:37;;;;;;;;;;;6.30;99.90;;;;;;5127103;27;19962;-75
2021/11/30 06:32:02;;;;;;;;;;;6.30;99.90;;;;;;5135916;27;19966;-75
2021/11/30 06:34:28;;;;;;;;;;;6.30;99.90;;;;;;5115123;27;19915;-75
2021/11/30 06:36:53;;;;;;;;;;;6.40;99.90;;;;;;5144339;27;19911;-76
2021/11/30 06:39:19;;;;;;;;;;;6.40;99.90;;;;;;5105683;27;19998;-76
2021/11/30 06:41:44;;;;;;;;;;;6.40;99.90;;;;;;5135497;27;19911;-75
2021/11/30 06:44:10;;;;;;;;;;;6.40;99.90;;;;;;5152689;27;19928;-76
2021/11/30 06:46:35;;;;;;;;;;;6.40;99.90;;;;;;5135439;27;19915;-77
2021/11/30 06:49:01;;;;;;;;;;;6.50;99.90;;;;;;5116706;27;19923;-76
2021/11/30 06:51:27;;;;;;;;;;;6.50;99.90;;;;;;5142261;27;20378;-76
2021/11/30 06:53:52;;;;;;;;;;;6.50;99.90;;;;;;5113793;27;19916;-76
2021/11/30 06:56:18;;;;;;;;;;;6.50;99.90;;;;;;5118505;27;20007;-76
2021/11/30 06:58:43;;;;;;;;;;;6.50;99.90;;;;;;5120629;27;19915;-76
2021/11/30 07:01:10;;;;;;;;;;;6.50;99.90;;;;;;5133213;27;19952;-76
2021/11/30 07:03:37;;;;;;;;;;;6.60;99.90;;;;;;5135127;27;20346;-76
2021/11/30 07:06:12;;;;;;;;;;;6.60;99.90;;;;;;5104670;27;19912;-75
2021/11/30 07:09:15;;;;;;;;;;;6.60;99.90;;;;;;5137753;27;19924;-76
2021/11/30 07:14:13;;;;;;;;;;;6.60;99.90;;;;;;5148564;27;19922;-76
2021/11/30 07:16:38;;;;;;;;;;;6.60;99.90;;;;;;5118122;27;20368;-76
2021/11/30 07:19:04;;;;;;;;;;;6.60;99.90;;;;;;5124837;27;19918;-76
2021/11/30 07:21:30;;;;;;;;;;;6.60;99.90;;;;;;5125944;27;19919;-76
2021/11/30 07:23:55;;;;;;;;;;;6.70;99.90;;;;;;5123724;27;20557;-77
2021/11/30 07:26:21;;;;;;;;;;;6.70;99.90;;;;;;5122747;27;20648;-76
2021/11/30 07:28:47;;;;;;;;;;;6.70;99.90;;;;;;5134706;27;20014;-76
2021/11/30 07:31:13;;;;;;;;;;;6.70;99.90;;;;;;5116963;27;19927;-76
2021/11/30 07:33:41;;;;;;;;;;;6.70;99.90;;;;;;5136096;27;19907;-76
2021/11/30 07:36:09;;;;;;;;;;;6.70;99.90;;;;;;5129517;27;19911;-76
2021/11/30 07:38:35;;;;;;;;;;;6.70;99.90;;;;;;5134559;27;19941;-76
2021/11/30 07:41:00;;;;;;;;;;;6.70;99.90;;;;;;5140859;27;20003;-76
2021/11/30 07:43:26;;;;;;;;;;;6.70;99.90;;;;;;5117491;27;19924;-76
2021/11/30 07:45:51;;;;;;;;;;;6.80;99.90;;;;;;5137423;27;19916;-76
2021/11/30 07:48:17;;;;;;;;;;;6.80;99.90;;;;;;5135848;27;19925;-76
2021/11/30 07:50:43;;;;;;;;;;;6.90;99.90;;;;;;5117192;27;19915;-76
2021/11/30 07:53:09;;;;;;;;;;;6.80;99.90;;;;;;5150896;27;19911;-77
2021/11/30 07:55:36;;;;;;;;;;;6.90;99.90;;;;;;5149977;27;19915;-76
2021/11/30 07:58:06;;;;;;;;;;;6.90;99.90;;;;;;5121651;27;20240;-76
2021/11/30 08:00:31;;;;;;;;;;;6.90;99.90;;;;;;5146488;27;19915;-80
2021/11/30 08:02:57;;;;;;;;;;;6.90;99.90;;;;;;5109024;27;19915;-81
2021/11/30 08:05:22;;;;;;;;;;;7.00;99.90;;;;;;5107679;27;19919;-81
2021/11/30 08:07:48;;;;;;;;;;;7.00;99.90;;;;;;5119863;27;19926;-76
2021/11/30 08:10:17;;;;;;;;;;;7.00;99.90;;;;;;5123545;27;20632;-75
2021/11/30 08:12:43;;;;;;;;;;;7.00;99.90;;;;;;5120581;27;19915;-76
2021/11/30 08:15:09;;;;;;;;;;;7.00;99.90;;;;;;5148272;27;19912;-76
2021/11/30 08:17:35;;;;;;;;;;;7.00;99.90;;;;;;5117055;27;19920;-76
2021/11/30 08:20:02;;;;;;;;;;;7.10;99.90;;;;;;5116430;27;19908;-76
2021/11/30 08:22:27;;;;;;;;;;;7.10;99.90;;;;;;5100846;27;19994;-76
2021/11/30 08:24:53;;;;;;;;;;;7.10;99.90;;;;;;5154236;27;19911;-77
2021/11/30 08:27:19;;;;;;;;;;;7.10;99.90;;;;;;5126900;27;19919;-76
2021/11/30 08:29:47;;;;;;;;;;;7.20;99.90;;;;;;5148728;27;20029;-76
2021/11/30 08:32:13;;;;;;;;;;;7.20;99.90;;;;;;5150266;27;19923;-76
2021/11/30 08:34:40;;;;;;;;;;;7.20;99.90;;;;;;5122086;27;19911;-76
2021/11/30 08:37:06;;;;;;;;;;;7.20;99.90;;;;;;5131912;27;19923;-76
2021/11/30 08:39:33;;;;;;;;;;;7.30;99.90;;;;;;5115123;27;19912;-76
2021/11/30 08:41:59;;;;;;;;;;;7.30;99.90;;;;;;5135853;27;20256;-76
2021/11/30 08:44:24;;;;;;;;;;;7.30;99.90;;;;;;5114548;27;19914;-76
2021/11/30 08:46:50;;;;;;;;;;;7.40;99.90;;;;;;5108885;27;20041;-76
2021/11/30 08:49:15;;;;;;;;;;;7.40;99.90;;;;;;5117354;27;19919;-76
2021/11/30 08:51:41;;;;;;;;;;;7.40;99.90;;;;;;5133869;27;19915;-76
2021/11/30 08:54:07;;;;;;;;;;;7.40;99.90;;;;;;5134946;27;20347;-76
2021/11/30 08:56:33;;;;;;;;;;;7.40;99.90;;;;;;5129661;27;19915;-76
2021/11/30 08:58:58;;;;;;;;;;;7.50;99.90;;;;;;5135032;27;19971;-76
2021/11/30 09:01:24;;;;;;;;;;;7.50;99.90;;;;;;5132848;27;19919;-76
2021/11/30 09:03:49;;;;;;;;;;;7.50;99.90;;;;;;5133672;27;19918;-76
2021/11/30 09:06:15;;;;;;;;;;;7.50;99.90;;;;;;5133848;27;19967;-76
2021/11/30 09:08:40;;;;;;;;;;;7.60;99.90;;;;;;5114429;27;19945;-76
2021/11/30 09:11:06;;;;;;;;;;;7.60;99.90;;;;;;5133033;27;19908;-76
2021/11/30 09:13:31;;;;;;;;;;;7.70;99.90;;;;;;5113949;27;19960;-76
2021/11/30 09:15:57;;;;;;;;;;;7.70;99.90;;;;;;5132399;27;19912;-76
2021/11/30 09:18:23;;;;;;;;;;;7.70;99.90;;;;;;5113657;27;20384;-76
2021/11/30 09:20:49;;;;;;;;;;;7.70;99.90;;;;;;5095942;27;19912;-76
2021/11/30 09:23:14;;;;;;;;;;;7.70;99.90;;;;;;5112443;27;19926;-76
2021/11/30 09:25:40;;;;;;;;;;;7.80;99.90;;;;;;5131372;27;19908;-76
2021/11/30 09:28:05;;;;;;;;;;;7.80;99.90;;;;;;5121354;27;20287;-76
2021/11/30 09:30:34;;;;;;;;;;;7.80;99.90;;;;;;5133047;27;19931;-76
2021/11/30 09:33:00;;;;;;;;;;;7.90;99.90;;;;;;5128411;27;19954;-76
2021/11/30 09:35:25;;;;;;;;;;;7.90;99.90;;;;;;5127015;27;20431;-76
2021/11/30 09:37:52;;;;;;;;;;;7.90;99.90;;;;;;5116939;28;19968;-76
2021/11/30 09:40:19;;;;;;;;;;;7.90;99.90;;;;;;5147265;27;19922;-77
2021/11/30 09:42:47;;;;;;;;;;;8.00;99.90;;;;;;5133034;27;19911;-76
2021/11/30 09:45:13;;;;;;;;;;;8.00;99.90;;;;;;5104677;27;19926;-75
2021/11/30 09:47:39;;;;;;;;;;;8.00;99.90;;;;;;5136855;27;19927;-76
2021/11/30 09:50:06;;;;;;;;;;;8.10;99.90;;;;;;5137258;27;20446;-76
2021/11/30 09:52:32;;;;;;;;;;;8.00;99.90;;;;;;5151963;27;19927;-76
2021/11/30 09:54:57;;;;;;;;;;;8.10;99.90;;;;;;5116571;27;19911;-76
2021/11/30 09:57:23;;;;;;;;;;;8.10;99.90;;;;;;5127593;27;19923;-76
2021/11/30 09:59:49;;;;;;;;;;;8.10;99.90;;;;;;5156410;27;19913;-76
2021/11/30 10:02:14;;;;;;;;;;;8.10;99.90;;;;;;5115941;27;20014;-76
2021/11/30 10:04:41;;;;;;;;;;;8.20;99.90;;;;;;5135817;27;20357;-76
2021/11/30 10:07:07;;;;;;;;;;;8.20;99.90;;;;;;5102940;27;20021;-76
2021/11/30 10:09:32;;;;;;;;;;;8.20;99.90;;;;;;5155981;27;20431;-76
2021/11/30 10:12:06;;;;;;;;;;;8.30;99.90;;;;;;5147733;27;19969;-76
2021/11/30 10:14:34;;;;;;;;;;;8.30;99.90;;;;;;5141350;27;20002;-75
2021/11/30 10:17:21;;;;;;;;;;;8.30;99.90;;;;;;5152493;27;20010;-76
2021/11/30 10:19:52;;;;;;;;;;;8.30;99.90;;;;;;5139148;27;19959;-76
2021/11/30 10:22:36;;;;;;;;;;;8.30;99.90;;;;;;5138442;27;19919;-76
2021/11/30 10:25:09;;;;;;;;;;;8.30;99.90;;;;;;5119116;27;19918;-76
2021/11/30 10:27:35;;;;;;;;;;;8.40;99.90;;;;;;5101361;27;19925;-76
2021/11/30 10:30:08;;;;;;;;;;;8.40;99.90;;;;;;5102831;27;19915;-76
2021/11/30 10:32:34;;;;;;;;;;;8.40;99.90;;;;;;5148658;27;19942;-76
2021/11/30 10:35:01;;;;;;;;;;;8.40;99.90;;;;;;5139280;27;19915;-76
2021/11/30 10:37:27;;;;;;;;;;;8.50;99.90;;;;;;5124750;27;20002;-78
2021/11/30 10:39:52;;;;;;;;;;;8.50;99.90;;;;;;5136915;27;20018;-78
2021/11/30 10:42:20;;;;;;;;;;;8.60;99.90;;;;;;5126650;27;19915;-78
2021/11/30 10:44:47;;;;;;;;;;;8.60;99.90;;;;;;5135163;27;19953;-78
2021/11/30 10:47:14;;;;;;;;;;;8.60;99.90;;;;;;5144855;27;19911;-78
2021/11/30 10:49:52;;;;;;;;;;;8.60;99.90;;;;;;5136893;27;20291;-78
2021/11/30 10:52:22;;;;;;;;;;;8.60;99.90;;;;;;5129992;27;20010;-78
2021/11/30 10:54:48;;;;;;;;;;;8.60;99.90;;;;;;5136755;27;19923;-78
2021/11/30 10:57:14;;;;;;;;;;;8.70;99.90;;;;;;5136330;27;20296;-78
2021/11/30 10:59:39;;;;;;;;;;;8.70;99.90;;;;;;5138516;27;19917;-78
2021/11/30 11:02:05;;;;;;;;;;;8.70;99.90;;;;;;5134975;27;20206;-78
2021/11/30 11:04:33;;;;;;;;;;;8.70;99.90;;;;;;5149346;27;20276;-78
2021/11/30 11:07:04;;;;;;;;;;;8.70;99.90;;;;;;5147815;27;20412;-78
2021/11/30 11:09:47;;;;;;;;;;;8.70;99.90;;;;;;5124812;27;19965;-78
2021/11/30 11:12:23;;;;;;;;;;;8.80;99.90;;;;;;5136005;27;19915;-78
2021/11/30 11:14:49;;;;;;;;;;;8.80;99.90;;;;;;5136064;27;19907;-78
2021/11/30 11:17:33;;;;;;;;;;;8.80;99.90;;;;;;5153101;27;19923;-78
2021/11/30 11:19:59;;;;;;;;;;;8.80;99.90;;;;;;5132598;27;20274;-78
2021/11/30 11:22:27;;;;;;;;;;;8.80;99.90;;;;;;5117576;27;19964;-78
2021/11/30 11:24:57;;;;;;;;;;;8.80;99.90;;;;;;5137509;27;19915;-78
2021/11/30 11:27:33;;;;;;;;;;;8.80;99.90;;;;;;5132347;27;19927;-78
2021/11/30 11:29:59;;;;;;;;;;;8.80;99.90;;;;;;5156440;27;19911;-78
2021/11/30 11:32:26;;;;;;;;;;;8.80;99.90;;;;;;5155466;27;19915;-78
2021/11/30 11:34:52;;;;;;;;;;;8.80;99.90;;;;;;5126544;27;19926;-78
2021/11/30 11:37:18;;;;;;;;;;;8.80;99.90;;;;;;5149629;27;20002;-78
2021/11/30 11:39:43;;;;;;;;;;;8.90;99.90;;;;;;5116980;27;19998;-78
2021/11/30 11:44:39;;;;;;;20.38;12.63;;;8.80;99.90;;;;;;5081843;27;2005413;-78
2021/11/30 11:47:08;;;;;;;17.55;11.73;;;8.90;99.90;;;;;;5093724;28;20031;-79
2021/11/30 11:49:36;;;;;;;21.10;13.00;;;8.90;99.90;;;;;;5098917;28;20124;-79
2021/11/30 11:52:03;;;;;;;13.35;10.93;;;9.00;99.90;;;;;;5122278;28;20094;-78
2021/11/30 11:54:35;;;;;;;17.75;12.63;;;8.90;99.90;;;;;;5074063;28;20088;-79
2021/11/30 11:57:09;;;;;;;24.02;13.10;;;9.00;99.90;;;;;;5105348;28;20023;-78
2021/11/30 11:59:43;;;;;;;17.55;12.25;;;8.90;99.90;;;;;;5120166;28;20099;-82
2021/11/30 12:02:40;;;;;;;18.55;12.77;;;9.00;99.90;;;;;;5084085;28;20086;-83
2021/11/30 12:05:07;;;;;;;18.98;13.25;;;9.00;99.90;;;;;;5104564;28;20040;-83
2021/11/30 12:07:51;;;;;;;20.92;13.15;;;9.00;99.90;;;;;;5116491;28;20028;-83
2021/11/30 12:10:20;;;;;;;16.85;12.70;;;9.00;99.90;;;;;;5116340;28;20031;-82
2021/11/30 12:13:00;;;;;;;17.00;12.07;;;9.00;99.90;;;;;;5095478;28;20092;-82
2021/11/30 12:15:53;;;;;;;16.63;12.32;;;9.00;99.90;;;;;;5111797;28;20036;-83
2021/11/30 12:18:49;;;;;;;22.02;13.57;;;9.00;99.90;;;;;;5115886;28;20027;-82
2021/11/30 12:21:28;;;;;;;18.20;12.15;;;9.00;99.90;;;;;;5128107;28;20031;-82
2021/11/30 12:23:57;;;;;;;22.17;15.23;;;9.00;99.90;;;;;;5109680;28;20034;-82
2021/11/30 12:26:31;;;;;;;24.38;14.00;;;9.00;99.90;;;;;;5128137;28;20027;-81
2021/11/30 12:28:58;;;;;;;20.23;13.90;;;9.00;99.90;;;;;;5109853;28;20030;-82
2021/11/30 12:31:39;;;;;;;20.17;13.80;;;9.00;99.90;;;;;;5127299;28;20027;-82
2021/11/30 12:34:07;;;;;;;22.27;14.73;;;9.10;99.90;;;;;;5123692;28;20034;-83
2021/11/30 12:36:39;;;;;;;22.40;15.13;;;9.10;99.90;;;;;;5107314;28;20040;-83
2021/11/30 12:39:11;;;;;;;23.00;14.93;;;9.10;99.90;;;;;;5107514;28;20111;-82
2021/11/30 12:41:43;;;;;;;19.75;14.15;;;9.10;99.90;;;;;;5125745;28;20031;-83
2021/11/30 12:44:18;;;;;;;21.50;15.32;;;9.10;99.90;;;;;;5090383;28;20035;-83
2021/11/30 12:46:47;;;;;;;25.63;15.57;;;9.10;99.90;;;;;;5107323;28;20020;-83
2021/11/30 12:49:25;;;;;;;;;;;9.10;99.90;;;;;;5126386;28;20019;-82
2021/11/30 12:52:14;;;;;;;28.45;17.48;;;9.10;99.90;;;;;;5123576;28;20360;-82
2021/11/30 12:54:43;;;;;;;36.75;20.90;;;9.10;99.90;;;;;;5043231;28;20045;-83
2021/11/30 12:57:12;;;;;;;27.30;17.23;;;9.10;99.90;;;;;;5093682;28;20027;-83
2021/11/30 12:59:37;;;;;;;27.70;17.48;;;9.20;99.90;;;;;;5109704;28;20620;-83
2021/11/30 13:02:28;;;;;;;25.10;16.95;;;9.10;99.90;;;;;;5112580;28;20019;-83
2021/11/30 13:05:15;;;;;;;29.60;18.00;;;9.20;99.90;;;;;;5079826;28;20106;-83
2021/11/30 13:07:47;;;;;;;24.65;18.08;;;9.20;99.90;;;;;;5112714;28;20035;-83
2021/11/30 13:10:35;;;;;;;29.80;19.52;;;9.20;99.90;;;;;;5093329;28;20023;-84
2021/11/30 13:13:05;;;;;;;31.83;19.35;;;9.20;99.90;;;;;;5092912;28;20039;-83
2021/11/30 13:15:31;;;;;;;26.67;18.35;;;9.20;99.90;;;;;;5112530;28;20035;-82
2021/11/30 13:18:01;;;;;;;27.30;18.27;;;9.20;99.90;;;;;;5109890;28;20027;-83
2021/11/30 13:20:29;;;;;;;38.15;19.65;;;9.20;99.90;;;;;;5093282;28;20030;-78
2021/11/30 13:22:56;;;;;;;34.85;20.52;;;9.20;99.90;;;;;;5093423;28;20122;-78
2021/11/30 13:25:30;;;;;;;24.58;17.30;;;9.20;99.90;;;;;;5073787;28;20043;-78
2021/11/30 13:28:04;;;;;;;27.23;17.77;;;9.20;99.90;;;;;;5092583;28;20104;-78
2021/11/30 13:30:34;;;;;;;26.38;17.58;;;9.20;99.90;;;;;;5098302;28;20104;-78
2021/11/30 13:33:03;;;;;;;;;;;9.20;99.90;;;;;;5089505;28;20039;-78
2021/11/30 13:35:34;;;;;;;29.00;17.85;;;9.20;99.90;;;;;;5106975;28;19911;-78
2021/11/30 13:38:12;;;;;;;22.05;16.83;;;9.20;99.90;;;;;;5112768;28;20753;-78
2021/11/30 13:40:43;;;;;;;22.45;15.85;;;9.20;99.90;;;;;;5092606;28;20032;-78
2021/11/30 13:43:22;;;;;;;23.00;16.30;;;9.20;99.90;;;;;;5091781;28;20542;-78
2021/11/30 13:45:53;;;;;;;;;;;9.20;99.90;;;;;;5114513;28;20019;-78
2021/11/30 13:48:26;;;;;;;21.85;15.35;;;9.20;99.90;;;;;;5113765;28;20381;-78
2021/11/30 13:50:54;;;;;;;23.50;16.70;;;9.20;99.90;;;;;;5100985;28;20032;-77
2021/11/30 13:53:22;;;;;;;21.33;16.38;;;9.20;99.90;;;;;;5096052;28;20031;-78
2021/11/30 13:55:53;;;;;;;23.27;15.97;;;9.30;99.90;;;;;;5113954;28;20027;-78
2021/11/30 13:58:42;;;;;;;21.88;16.13;;;9.30;99.90;;;;;;5112330;28;20330;-78
2021/11/30 14:01:19;;;;;;;23.00;15.77;;;9.30;99.90;;;;;;5113678;28;20377;-78
2021/11/30 14:03:53;;;;;;;19.75;15.45;;;9.30;99.90;;;;;;5095196;28;20028;-78
2021/11/30 14:06:30;;;;;;;22.45;17.05;;;9.30;99.90;;;;;;5091808;28;20031;-78
2021/11/30 14:09:00;;;;;;;20.58;14.63;;;9.30;99.90;;;;;;5113206;28;20011;-78
2021/11/30 14:11:29;;;;;;;22.65;16.20;;;9.30;99.90;;;;;;5113383;28;20039;-78
2021/11/30 14:13:55;;;;;;;28.52;16.33;;;9.30;99.90;;;;;;5113059;28;20031;-78
2021/11/30 14:16:24;;;;;;;17.88;14.45;;;9.30;99.90;;;;;;5089514;28;20027;-78
2021/11/30 14:18:57;;;;;;;18.45;13.98;;;9.30;99.90;;;;;;5110536;28;20472;-78
2021/11/30 14:21:26;;;;;;;19.35;13.93;;;9.40;99.90;;;;;;5104358;28;20126;-78
2021/11/30 14:24:13;;;;;;;18.17;13.23;;;9.30;99.90;;;;;;5111197;28;20107;-78
2021/11/30 14:26:44;;;;;;;21.30;13.77;;;9.40;99.90;;;;;;5088768;28;20027;-78
2021/11/30 14:29:16;;;;;;;20.10;13.98;;;9.40;99.90;;;;;;5083360;28;20034;-78